Time;durP1;ratioP1;P1;durP2;ratioP2;P2;SDS_P1;SDS_P2;PMS_P1;PMS_P2;Temp;Humidity;BMP_temperature;BMP_pressure;BME280_temperature;BME280_humidity;BME280_pressure;Samples;Min_cycle;Max_cycle;Signal;HPM_P1;HPM_P2
2022/04/01 00:00:54;;;;;;;0.20;0.20;;;;;;;11.25;99.39;98525.41;5052012;28;20030;-80
2022/04/01 00:03:23;;;;;;;0.20;0.20;;;;;;;11.09;98.67;98519.53;5056097;28;20021;-80
2022/04/01 00:05:52;;;;;;;0.20;0.20;;;;;;;11.08;99.26;98523.50;5054858;28;20049;-79
2022/04/01 00:08:21;;;;;;;0.20;0.20;;;;;;;11.07;99.93;98533.06;5053880;28;20055;-79
2022/04/01 00:10:47;;;;;;;0.20;0.20;;;;;;;11.07;99.91;98527.50;5054802;28;20041;-79
2022/04/01 00:13:15;;;;;;;0.20;0.20;;;;;;;11.02;100.00;98526.75;5053921;28;20029;-80
2022/04/01 00:15:41;;;;;;;0.20;0.20;;;;;;;11.12;99.89;98513.94;5053936;28;20025;-79
2022/04/01 00:18:11;;;;;;;0.20;0.20;;;;;;;11.06;99.42;98520.34;5053914;28;20022;-79
2022/04/01 00:20:39;;;;;;;0.20;0.20;;;;;;;10.95;100.00;98514.84;5052055;28;20037;-79
2022/04/01 00:23:08;;;;;;;0.20;0.20;;;;;;;10.82;100.00;98511.72;5053776;28;20014;-80
2022/04/01 00:25:36;;;;;;;0.20;0.20;;;;;;;10.74;100.00;98529.66;5053372;28;20026;-80
2022/04/01 00:28:06;;;;;;;0.20;0.20;;;;;;;10.61;100.00;98523.75;5053036;28;20033;-79
2022/04/01 00:30:34;;;;;;;0.20;0.20;;;;;;;10.55;100.00;98519.00;5051156;28;20017;-80
2022/04/01 00:33:01;;;;;;;0.20;0.20;;;;;;;10.43;100.00;98520.22;5050403;28;20036;-80
2022/04/01 00:35:32;;;;;;;0.20;0.20;;;;;;;10.36;100.00;98512.69;5048267;28;20053;-79
2022/04/01 00:38:00;;;;;;;0.20;0.20;;;;;;;10.35;100.00;98510.31;5048902;28;20057;-79
2022/04/01 00:40:26;;;;;;;0.20;0.20;;;;;;;10.33;100.00;98507.94;5049135;28;20024;-80
2022/04/01 00:42:52;;;;;;;0.30;0.30;;;;;;;10.31;100.00;98504.78;5033233;28;20476;-79
2022/04/01 00:45:17;;;;;;;0.20;0.20;;;;;;;10.32;100.00;98514.69;5050668;28;20029;-79
2022/04/01 00:47:46;;;;;;;0.20;0.20;;;;;;;10.25;100.00;98511.94;5048845;28;20122;-80
2022/04/01 00:50:11;;;;;;;0.28;0.28;;;;;;;10.26;100.00;98535.75;5059280;28;20029;-79
2022/04/01 00:52:42;;;;;;;0.20;0.20;;;;;;;10.29;100.00;98528.63;5040228;28;20029;-79
2022/04/01 00:55:11;;;;;;;0.30;0.30;;;;;;;10.30;100.00;98531.00;5040032;28;20037;-79
2022/04/01 00:57:40;;;;;;;0.20;0.20;;;;;;;10.33;100.00;98530.16;5039293;28;20029;-79
2022/04/01 01:00:07;;;;;;;0.30;0.30;;;;;;;10.33;100.00;98526.59;5044340;28;20373;-79
2022/04/01 01:02:34;;;;;;;0.20;0.20;;;;;;;10.37;100.00;98521.81;5043362;28;20026;-79
2022/04/01 01:05:00;;;;;;;0.20;0.20;;;;;;;10.34;100.00;98503.97;5045419;28;20041;-79
2022/04/01 01:07:29;;;;;;;0.20;0.20;;;;;;;10.41;100.00;98520.63;5047298;28;20021;-79
2022/04/01 01:09:57;;;;;;;0.20;0.20;;;;;;;10.39;100.00;98519.47;5046999;28;20041;-80
2022/04/01 01:12:25;;;;;;;0.20;0.20;;;;;;;10.34;100.00;98520.66;5046138;28;20033;-79
2022/04/01 01:14:55;;;;;;;0.20;0.20;;;;;;;10.39;100.00;98517.47;5045744;28;20029;-79
2022/04/01 01:17:21;;;;;;;0.20;0.20;;;;;;;10.27;100.00;98517.88;5045663;28;20049;-80
2022/04/01 01:19:50;;;;;;;0.20;0.20;;;;;;;10.26;100.00;98519.06;5047734;28;20030;-80
2022/04/01 01:22:18;;;;;;;0.20;0.20;;;;;;;10.30;100.00;98510.75;5065644;28;20034;-79
2022/04/01 01:24:44;;;;;;;0.20;0.20;;;;;;;10.24;100.00;98507.56;5049305;28;20025;-79
2022/04/01 01:27:11;;;;;;;0.20;0.20;;;;;;;10.26;100.00;98488.50;5064929;28;20056;-80
2022/04/01 01:29:42;;;;;;;0.20;0.20;;;;;;;10.19;100.00;98496.84;5049543;28;20056;-80
2022/04/01 01:32:19;;;;;;;0.20;0.20;;;;;;;10.21;100.00;98494.44;5049757;28;20081;-79
2022/04/01 01:34:47;;;;;;;0.20;0.20;;;;;;;10.30;100.00;98485.72;5048308;28;20037;-80
2022/04/01 01:37:15;;;;;;;0.20;0.20;;;;;;;10.25;100.00;98481.38;5048965;28;20076;-80
2022/04/01 01:39:43;;;;;;;0.20;0.20;;;;;;;10.21;100.00;98477.75;5047687;28;20050;-80
2022/04/01 01:42:12;;;;;;;0.20;0.20;;;;;;;10.26;100.00;98477.38;5049237;28;20132;-80
2022/04/01 01:44:38;;;;;;;0.20;0.20;;;;;;;10.31;100.00;98481.75;5047660;28;20060;-80
2022/04/01 01:47:04;;;;;;;0.20;0.20;;;;;;;10.31;100.00;98485.31;5047042;28;20041;-80
2022/04/01 01:49:34;;;;;;;0.20;0.20;;;;;;;10.34;100.00;98481.75;5047846;28;20037;-80
2022/04/01 01:54:45;;;;;;;0.20;0.20;;;;;;;10.27;100.00;98475.41;5051330;28;20491;-80
2022/04/01 01:57:17;;;;;;;0.20;0.20;;;;;;;10.24;100.00;98471.44;5049833;28;20021;-79
2022/04/01 01:59:46;;;;;;;0.20;0.20;;;;;;;10.30;100.00;98480.16;5049281;28;20041;-80
2022/04/01 02:02:18;;;;;;;0.20;0.20;;;;;;;10.34;100.00;98473.41;5049838;28;20056;-80
2022/04/01 02:04:47;;;;;;;0.20;0.20;;;;;;;10.48;100.00;98484.44;5055622;28;20033;-80
2022/04/01 02:07:15;;;;;;;0.20;0.20;;;;;;;10.53;100.00;98472.13;5050815;28;20033;-80
2022/04/01 02:09:46;;;;;;;0.20;0.20;;;;;;;10.38;100.00;98463.03;5045715;28;20032;-79
2022/04/01 02:12:12;;;;;;;0.20;0.20;;;;;;;10.45;100.00;98482.50;5046339;28;20022;-79
2022/04/01 02:14:38;;;;;;;0.20;0.20;;;;;;;10.33;100.00;98463.44;5049376;28;20040;-79
2022/04/01 02:17:05;;;;;;;0.20;0.20;;;;;;;10.26;100.00;98457.94;5045876;28;20030;-79
2022/04/01 02:19:33;;;;;;;0.20;0.20;;;;;;;10.30;100.00;98464.28;5046883;28;20033;-79
2022/04/01 02:22:02;;;;;;;0.30;0.30;;;;;;;10.17;100.00;98458.34;5046030;28;20124;-79
2022/04/01 02:24:32;;;;;;;0.20;0.20;;;;;;;10.10;100.00;98450.00;5046938;28;20056;-80
2022/04/01 02:27:00;;;;;;;0.20;0.20;;;;;;;10.15;100.00;98471.03;5046547;28;20064;-79
2022/04/01 02:29:32;;;;;;;0.20;0.20;;;;;;;10.20;100.00;98470.63;5050552;28;20026;-80
2022/04/01 02:32:00;;;;;;;0.20;0.20;;;;;;;10.16;100.00;98470.63;5048483;28;20033;-80
2022/04/01 02:34:29;;;;;;;0.30;0.30;;;;;;;10.31;100.00;98479.75;5050167;28;20092;-79
2022/04/01 02:36:58;;;;;;;0.20;0.20;;;;;;;10.31;100.00;98476.97;5032985;28;20030;-79
2022/04/01 02:39:27;;;;;;;0.20;0.20;;;;;;;10.31;100.00;98471.41;5070491;28;20045;-80
2022/04/01 02:41:56;;;;;;;0.20;0.20;;;;;;;10.28;100.00;98463.91;5054110;28;20055;-79
2022/04/01 02:44:21;;;;;;;0.20;0.20;;;;;;;10.38;100.00;98465.81;5067111;28;20044;-78
2022/04/01 02:46:47;;;;;;;0.20;0.20;;;;;;;10.30;100.00;98478.16;5050957;28;20036;-79
2022/04/01 02:49:17;;;;;;;0.25;0.25;;;;;;;10.34;100.00;98476.19;5054862;28;20035;-78
2022/04/01 02:51:45;;;;;;;0.20;0.20;;;;;;;10.28;100.00;98469.47;5055051;28;20084;-78
2022/04/01 02:54:12;;;;;;;0.20;0.20;;;;;;;10.29;100.00;98476.59;5055452;28;20048;-79
2022/04/01 02:56:40;;;;;;;0.20;0.20;;;;;;;10.32;100.00;98480.53;5056026;28;20040;-78
2022/04/01 02:59:11;;;;;;;0.20;0.20;;;;;;;10.38;100.00;98482.50;5055714;28;20055;-79
2022/04/01 03:01:41;;;;;;;0.20;0.20;;;;;;;10.29;100.00;98479.38;5055468;28;20033;-79
2022/04/01 03:04:11;;;;;;;0.20;0.20;;;;;;;10.37;100.00;98480.91;5072741;28;20029;-78
2022/04/01 03:06:44;;;;;;;0.20;0.20;;;;;;;10.36;100.00;98471.00;5055268;28;20057;-78
2022/04/01 03:09:16;;;;;;;0.20;0.20;;;;;;;10.29;100.00;98479.38;5037727;28;20060;-79
2022/04/01 03:11:42;;;;;;;0.20;0.20;;;;;;;10.32;100.00;98478.56;5052931;28;20098;-78
2022/04/01 03:14:11;;;;;;;0.20;0.20;;;;;;;10.39;100.00;98484.09;5051939;28;20056;-79
2022/04/01 03:16:41;;;;;;;0.20;0.20;;;;;;;10.41;100.00;98475.34;5052815;28;20093;-78
2022/04/01 03:19:10;;;;;;;0.20;0.20;;;;;;;10.40;100.00;98485.69;5052725;28;20032;-79
2022/04/01 03:21:41;;;;;;;0.20;0.20;;;;;;;10.37;100.00;98483.69;5050660;28;20052;-79
2022/04/01 03:24:10;;;;;;;0.20;0.20;;;;;;;10.33;100.00;98474.56;5017844;28;20033;-78
2022/04/01 03:26:40;;;;;;;0.20;0.20;;;;;;;10.38;100.00;98476.94;5048350;28;20025;-78
2022/04/01 03:29:12;;;;;;;0.20;0.20;;;;;;;10.37;100.00;98478.13;5050968;28;20052;-78
2022/04/01 03:31:42;;;;;;;0.28;0.28;;;;;;;10.28;100.00;98480.56;5051565;28;20075;-79
2022/04/01 03:34:13;;;;;;;0.20;0.20;;;;;;;10.23;100.00;98475.41;5051552;28;20029;-78
2022/04/01 03:36:42;;;;;;;0.20;0.20;;;;;;;10.21;100.00;98477.75;5049266;28;20029;-78
2022/04/01 03:39:07;;;;;;;0.30;0.30;;;;;;;10.19;100.00;98474.59;5067175;28;20083;-78
2022/04/01 03:41:37;;;;;;;0.20;0.20;;;;;;;10.20;100.00;98471.41;5048663;28;20025;-79
2022/04/01 03:44:10;;;;;;;0.20;0.20;;;;;;;10.23;100.00;98467.06;5045959;28;20036;-79
2022/04/01 03:46:59;;;;;;;0.20;0.20;;;;;;;10.27;100.00;98476.19;5066357;28;20040;-79
2022/04/01 03:49:31;;;;;;;0.20;0.20;;;;;;;10.26;100.00;98469.03;5049311;28;20025;-79
2022/04/01 03:51:58;;;;;;;0.30;0.30;;;;;;;10.32;100.00;98473.00;5050357;28;20032;-79
2022/04/01 03:54:25;;;;;;;0.20;0.20;;;;;;;10.36;100.00;98467.44;5034464;28;20029;-79
2022/04/01 03:57:00;;;;;;;0.20;0.20;;;;;;;10.40;100.00;98469.00;5050444;28;20462;-79
2022/04/01 03:59:40;;;;;;;0.20;0.20;;;;;;;10.39;100.00;98467.41;5050507;28;20100;-79
2022/04/01 04:02:12;;;;;;;0.20;0.20;;;;;;;10.35;100.00;98461.06;5068271;28;20104;-78
2022/04/01 04:04:39;;;;;;;0.20;0.20;;;;;;;10.34;100.00;98461.50;5049709;28;20040;-79
2022/04/01 04:07:10;;;;;;;0.20;0.20;;;;;;;10.40;100.00;98463.44;5048745;28;20025;-78
2022/04/01 04:09:39;;;;;;;0.20;0.20;;;;;;;10.41;100.00;98453.91;5049677;28;20021;-79
2022/04/01 04:12:13;;;;;;;0.20;0.20;;;;;;;10.39;100.00;98461.88;5049317;28;20124;-79
2022/04/01 04:14:42;;;;;;;0.20;0.20;;;;;;;10.36;100.00;98467.44;5065570;28;20059;-79
2022/04/01 04:17:16;;;;;;;0.20;0.20;;;;;;;10.53;100.00;98455.44;5050172;28;20527;-78
2022/04/01 04:19:53;;;;;;;0.20;0.20;;;;;;;10.43;100.00;98456.28;5048663;28;20029;-79
2022/04/01 04:22:49;;;;;;;0.20;0.20;;;;;;;10.38;100.00;98460.25;5049851;28;20058;-78
2022/04/01 04:25:24;;;;;;;0.20;0.20;;;;;;;10.30;100.00;98458.72;5049417;28;20028;-79
2022/04/01 04:27:57;;;;;;;0.20;0.20;;;;;;;10.33;100.00;98460.66;5049169;28;20033;-79
2022/04/01 04:30:37;;;;;;;0.20;0.20;;;;;;;10.37;100.00;98464.22;5067818;28;20036;-79
2022/04/01 04:33:08;;;;;;;0.22;0.22;;;;;;;10.35;100.00;98458.31;5048693;28;20561;-79
2022/04/01 04:35:39;;;;;;;0.20;0.20;;;;;;;10.38;100.00;98462.25;5049563;28;20088;-79
2022/04/01 04:38:07;;;;;;;0.20;0.20;;;;;;;10.37;100.00;98463.44;5046976;28;20049;-79
2022/04/01 04:40:35;;;;;;;0.20;0.20;;;;;;;10.41;100.00;98464.22;5046906;28;20022;-79
2022/04/01 04:43:02;;;;;;;0.20;0.20;;;;;;;10.36;100.00;98470.22;5045355;28;20022;-79
2022/04/01 04:45:28;;;;;;;0.20;0.20;;;;;;;10.33;100.00;98457.88;5045618;28;20473;-79
2022/04/01 04:47:55;;;;;;;0.20;0.20;;;;;;;10.44;100.00;98463.44;5045541;28;20029;-79
2022/04/01 04:50:21;;;;;;;0.20;0.20;;;;;;;10.39;100.00;98461.06;5046028;28;20034;-78
2022/04/01 04:52:50;;;;;;;0.20;0.20;;;;;;;10.42;100.00;98472.16;5046379;28;20037;-78
2022/04/01 04:55:18;;;;;;;0.20;0.20;;;;;;;10.37;100.00;98466.22;5049543;28;20021;-79
2022/04/01 04:57:45;;;;;;;0.20;0.20;;;;;;;10.31;100.00;98468.63;5050500;28;20029;-78
2022/04/01 05:00:19;;;;;;;0.20;0.20;;;;;;;10.35;100.00;98488.88;5045348;28;20060;-79
2022/04/01 05:02:57;;;;;;;0.20;0.20;;;;;;;10.45;100.00;98481.69;5046336;28;20040;-79
2022/04/01 05:05:47;;;;;;;0.20;0.20;;;;;;;10.39;100.00;98467.41;5045760;28;20029;-79
2022/04/01 05:08:46;;;;;;;0.20;0.20;;;;;;;10.44;100.00;98475.34;5034057;28;20041;-79
2022/04/01 05:11:36;;;;;;;0.20;0.20;;;;;;;10.49;100.00;98477.72;5045354;28;20476;-80
2022/04/01 05:14:30;;;;;;;0.20;0.20;;;;;;;10.45;100.00;98482.50;5046538;28;20037;-79
2022/04/01 05:17:04;;;;;;;0.20;0.20;;;;;;;10.66;100.00;98475.25;5045062;28;20030;-80
2022/04/01 05:19:32;;;;;;;0.20;0.20;;;;;;;10.54;100.00;98468.13;5047630;28;20018;-78
2022/04/01 05:22:06;;;;;;;0.20;0.20;;;;;;;10.33;100.00;98484.91;5045604;28;20033;-79
2022/04/01 05:24:43;;;;;;;0.30;0.30;;;;;;;10.35;100.00;98488.09;5045220;28;20491;-79
2022/04/01 05:27:25;;;;;;;0.20;0.20;;;;;;;10.41;100.00;98490.03;5040866;28;20053;-79
2022/04/01 05:30:16;;;;;;;0.28;0.28;;;;;;;10.42;100.00;98488.84;5044007;28;20089;-78
2022/04/01 05:33:06;;;;;;;0.20;0.20;;;;;;;10.41;100.00;98487.25;5045634;28;20443;-79
2022/04/01 05:35:37;;;;;;;0.20;0.20;;;;;;;10.49;100.00;98486.06;5045113;28;20030;-79
2022/04/01 05:38:04;;;;;;;0.20;0.20;;;;;;;10.54;100.00;98489.59;5047038;28;20053;-79
2022/04/01 05:40:31;;;;;;;0.20;0.20;;;;;;;10.51;100.00;98495.97;5046179;28;20089;-79
2022/04/01 05:43:01;;;;;;;0.20;0.20;;;;;;;10.46;100.00;98492.41;5044164;28;20018;-79
2022/04/01 05:45:30;;;;;;;0.28;0.28;;;;;;;10.67;100.00;98483.19;5046527;28;20038;-80
2022/04/01 05:48:01;;;;;;;0.20;0.20;;;;;;;10.81;100.00;98487.06;5047244;28;20025;-79
2022/04/01 05:50:28;;;;;;;0.20;0.20;;;;;;;10.77;100.00;98486.31;5048247;28;20029;-79
2022/04/01 05:52:56;;;;;;;0.25;0.25;;;;;;;10.78;100.00;98474.78;5045466;28;20022;-77
2022/04/01 05:55:28;;;;;;;0.20;0.20;;;;;;;10.89;100.00;98478.31;5046227;28;20044;-79
2022/04/01 05:57:55;;;;;;;0.20;0.20;;;;;;;10.96;100.00;98485.81;5045666;28;20022;-79
2022/04/01 06:00:23;;;;;;;0.20;0.20;;;;;;;11.04;100.00;98487.38;5047315;28;20060;-78
2022/04/01 06:03:23;;;;;;;0.20;0.20;;;;;;;11.08;100.00;98490.09;5050551;28;20052;-79
2022/04/01 06:06:01;;;;;;;0.20;0.20;;;;;;;11.15;100.00;98490.06;5051480;28;20036;-78
2022/04/01 06:08:46;;;;;;;0.20;0.20;;;;;;;11.28;100.00;98491.16;5054825;28;20033;-79
2022/04/01 06:11:32;;;;;;;0.20;0.20;;;;;;;11.19;99.20;98490.84;5054823;28;20017;-78
2022/04/01 06:14:02;;;;;;;0.20;0.20;;;;;;;11.22;97.84;98495.59;5054601;28;20044;-79
2022/04/01 06:17:22;;;;;;;0.20;0.20;;;;;;;11.18;99.96;98495.59;5056017;28;20079;-78
2022/04/01 06:19:51;;;;;;;0.20;0.20;;;;;;;11.31;100.00;98501.50;4976163;28;20062;-80
2022/04/01 06:22:24;;;;;;;0.20;0.20;;;;;;;11.32;100.00;98494.72;5045234;28;20047;-79
2022/04/01 06:25:15;;;;;;;0.20;0.20;;;;;;;11.40;100.00;98501.84;5050692;28;20037;-79
2022/04/01 06:27:49;;;;;;;0.20;0.20;;;;;;;11.62;97.45;98493.31;5052696;28;20476;-79
2022/04/01 06:30:24;;;;;;;0.20;0.20;;;;;;;11.54;97.97;98503.72;5053071;28;20084;-79
2022/04/01 06:33:19;;;;;;;0.20;0.20;;;;;;;11.58;98.38;98500.91;5050827;28;20029;-80
2022/04/01 06:35:48;;;;;;;0.20;0.20;;;;;;;11.62;98.99;98501.66;5049323;28;20059;-79
2022/04/01 06:38:32;;;;;;;0.20;0.20;;;;;;;11.44;98.32;98496.22;5049749;28;20053;-79
2022/04/01 06:41:09;;;;;;;0.20;0.20;;;;;;;11.36;99.07;98494.72;5049480;28;20029;-79
2022/04/01 06:43:38;;;;;;;0.20;0.20;;;;;;;11.41;99.33;98497.84;5047653;28;20101;-79
2022/04/01 06:46:07;;;;;;;0.20;0.20;;;;;;;11.47;99.13;98496.22;5044857;28;20053;-79
2022/04/01 06:48:36;;;;;;;0.20;0.20;;;;;;;11.45;98.77;98503.38;5045405;28;20044;-79
2022/04/01 06:51:02;;;;;;;0.20;0.20;;;;;;;11.43;99.12;98495.44;5046016;28;20029;-78
2022/04/01 06:53:28;;;;;;;0.20;0.20;;;;;;;11.45;99.55;98493.06;5046403;28;20033;-78
2022/04/01 06:55:54;;;;;;;0.20;0.20;;;;;;;11.50;99.48;98489.00;5046283;28;20392;-79
2022/04/01 06:58:21;;;;;;;0.20;0.20;;;;;;;11.60;99.72;98493.72;5047491;28;20043;-78
2022/04/01 07:00:47;;;;;;;0.20;0.20;;;;;;;11.66;99.67;98496.84;5045845;28;20049;-79
2022/04/01 07:03:12;;;;;;;0.20;0.20;;;;;;;11.72;99.16;98495.22;5044567;28;20048;-78
2022/04/01 07:05:40;;;;;;;0.20;0.20;;;;;;;11.87;98.53;98490.31;5044962;28;20041;-79
2022/04/01 07:08:07;;;;;;;0.20;0.20;;;;;;;11.96;97.94;98493.44;5045634;28;20076;-78
2022/04/01 07:10:33;;;;;;;0.20;0.20;;;;;;;11.93;98.06;98480.31;5044935;28;20033;-79
2022/04/01 07:12:59;;;;;;;0.20;0.20;;;;;;;12.01;98.13;98490.97;5048052;28;20036;-79
2022/04/01 07:15:25;;;;;;;0.20;0.20;;;;;;;12.02;98.04;98498.13;5049175;28;20041;-79
2022/04/01 07:17:52;;;;;;;0.20;0.20;;;;;;;11.92;97.65;98496.25;5026354;28;20037;-78
2022/04/01 07:20:24;;;;;;;0.20;0.20;;;;;;;11.77;97.79;98486.38;5043076;28;20129;-79
2022/04/01 07:22:52;;;;;;;0.20;0.20;;;;;;;11.81;98.95;98501.09;5041382;28;20071;-80
2022/04/01 07:25:22;;;;;;;0.20;0.20;;;;;;;11.87;99.53;98495.88;5042979;28;20187;-79
2022/04/01 07:27:48;;;;;;;0.20;0.20;;;;;;;11.82;97.87;98499.91;5044953;28;20053;-79
2022/04/01 07:30:14;;;;;;;0.20;0.20;;;;;;;11.91;97.32;98507.81;5046739;28;20052;-79
2022/04/01 07:32:40;;;;;;;0.20;0.20;;;;;;;11.78;97.12;98515.88;5044989;28;20033;-79
2022/04/01 07:35:12;;;;;;;0.20;0.20;;;;;;;11.80;97.47;98508.66;5042698;28;20048;-79
2022/04/01 07:37:38;;;;;;;0.20;0.20;;;;;;;11.72;98.44;98509.16;5027613;28;20512;-79
2022/04/01 07:40:07;;;;;;;0.20;0.20;;;;;;;11.63;99.40;98503.25;5045653;28;20033;-78
2022/04/01 07:42:38;;;;;;;0.20;0.20;;;;;;;11.63;100.00;98503.25;5050155;28;20033;-79
2022/04/01 07:45:04;;;;;;;0.20;0.20;;;;;;;11.74;100.00;98515.09;5048276;28;20028;-79
2022/04/01 07:47:35;;;;;;;0.20;0.20;;;;;;;12.09;100.00;98513.19;5065786;28;20033;-79
2022/04/01 07:50:03;;;;;;;0.20;0.20;;;;;;;12.36;99.21;98505.75;5065960;28;20051;-79
2022/04/01 07:52:43;;;;;;;0.20;0.20;;;;;;;12.71;94.92;98503.75;5064733;28;20112;-79
2022/04/01 07:55:11;;;;;;;0.20;0.20;;;;;;;12.86;91.90;98510.72;5044644;28;20017;-78
2022/04/01 07:57:40;;;;;;;0.20;0.20;;;;;;;12.90;92.29;98511.47;5044614;28;20021;-79
2022/04/01 08:00:10;;;;;;;0.20;0.20;;;;;;;12.72;91.78;98513.69;5038168;28;20112;-79
2022/04/01 08:02:42;;;;;;;0.20;0.20;;;;;;;12.86;92.42;98493.97;5043483;28;20032;-79
2022/04/01 08:05:09;;;;;;;0.20;0.20;;;;;;;12.78;93.16;98517.59;5026894;28;20036;-79
2022/04/01 08:07:38;;;;;;;0.20;0.20;;;;;;;12.63;93.80;98513.44;5043788;28;20494;-79
2022/04/01 08:10:07;;;;;;;0.20;0.20;;;;;;;12.55;95.57;98519.06;5044926;28;20033;-78
2022/04/01 08:12:39;;;;;;;0.20;0.20;;;;;;;12.72;96.35;98516.47;5063155;28;20502;-79
2022/04/01 08:15:06;;;;;;;0.20;0.20;;;;;;;12.84;94.56;98519.53;5046051;28;20027;-79
2022/04/01 08:17:35;;;;;;;0.20;0.20;;;;;;;13.11;95.13;98516.78;5047351;28;20060;-79
2022/04/01 08:20:04;;;;;;;0.20;0.20;;;;;;;13.28;92.05;98511.38;5064508;28;20059;-79
2022/04/01 08:22:36;;;;;;;0.30;0.30;;;;;;;13.86;90.73;98506.47;5043415;28;20024;-79
2022/04/01 08:25:02;;;;;;;0.20;0.20;;;;;;;15.31;84.84;98510.38;5038972;28;20029;-82
2022/04/01 08:27:30;;;;;;;0.20;0.20;;;;;;;16.01;80.33;98506.31;5037713;28;20040;-82
2022/04/01 08:29:59;;;;;;;0.20;0.20;;;;;;;16.71;76.11;98519.66;5036971;28;20029;-83
2022/04/01 08:32:30;;;;;;;0.20;0.20;;;;;;;16.94;69.68;98498.97;5053693;28;20036;-84
2022/04/01 08:34:59;;;;;;;0.20;0.20;;;;;;;16.59;70.05;98495.13;5036714;28;20025;-81
2022/04/01 08:37:25;;;;;;;0.20;0.20;;;;;;;16.57;71.16;98494.78;5037081;28;20032;-83
2022/04/01 08:39:53;;;;;;;0.20;0.20;;;;;;;16.18;70.35;98498.66;5040614;28;20096;-80
2022/04/01 08:42:27;;;;;;;0.20;0.20;;;;;;;16.26;71.87;98502.06;5049229;28;20060;-79
2022/04/01 08:44:57;;;;;;;0.20;0.20;;;;;;;16.03;73.18;98492.63;5052568;28;20119;-80
2022/04/01 08:47:22;;;;;;;0.20;0.20;;;;;;;16.28;72.72;98502.41;5047784;28;20092;-80
2022/04/01 08:49:54;;;;;;;0.20;0.20;;;;;;;16.67;71.94;98490.91;5044077;28;20420;-80
2022/04/01 08:52:20;;;;;;;0.20;0.20;;;;;;;16.72;70.96;98487.56;5039277;28;20032;-83
2022/04/01 08:54:46;;;;;;;0.20;0.20;;;;;;;16.91;69.40;98482.22;5021310;28;20029;-82
2022/04/01 08:57:17;;;;;;;0.20;0.20;;;;;;;16.33;70.43;98496.25;5037957;28;20391;-81
2022/04/01 08:59:45;;;;;;;0.20;0.20;;;;;;;16.30;71.23;98488.72;5044369;28;20029;-80
2022/04/01 09:02:14;;;;;;;0.20;0.20;;;;;;;16.11;71.69;98494.03;5042353;28;20025;-80
2022/04/01 09:04:40;;;;;;;0.20;0.20;;;;;;;15.45;72.91;98486.88;5050645;28;20403;-80
2022/04/01 09:07:13;;;;;;;0.20;0.20;;;;;;;15.30;72.89;98491.22;5044395;28;20032;-79
2022/04/01 09:09:39;;;;;;;0.20;0.20;;;;;;;15.26;74.52;98490.50;5042146;28;20029;-79
2022/04/01 09:12:11;;;;;;;0.20;0.20;;;;;;;14.80;74.62;98490.28;5050061;28;20017;-79
2022/04/01 09:14:50;;;;;;;0.20;0.20;;;;;;;14.83;75.51;98497.06;5052364;28;20033;-79
2022/04/01 09:17:19;;;;;;;0.20;0.20;;;;;;;14.75;76.45;98504.00;5052600;28;20025;-79
2022/04/01 09:19:49;;;;;;;0.20;0.20;;;;;;;14.51;79.09;98517.31;5056705;28;20088;-80
2022/04/01 09:22:23;;;;;;;0.20;0.20;;;;;;;14.42;80.48;98518.63;5058542;28;20041;-80
2022/04/01 09:25:09;;;;;;;0.20;0.20;;;;;;;14.38;81.74;98517.91;5059905;28;20033;-79
2022/04/01 09:27:46;;;;;;;0.20;0.20;;;;;;;14.19;81.35;98521.47;5059713;28;20024;-79
2022/04/01 09:30:26;;;;;;;0.20;0.20;;;;;;;14.12;80.78;98524.41;5076412;28;20037;-79
2022/04/01 09:32:58;;;;;;;0.20;0.20;;;;;;;13.84;77.66;98531.25;5056479;28;20027;-80
2022/04/01 09:35:29;;;;;;;0.20;0.20;;;;;;;14.21;76.06;98537.81;5055952;28;20087;-80
2022/04/01 09:38:13;;;;;;;0.30;0.30;;;;;;;14.58;72.34;98531.94;5055869;28;20053;-79
2022/04/01 09:40:44;;;;;;;0.20;0.20;;;;;;;15.13;68.60;98533.22;5056377;28;20028;-80
2022/04/01 09:43:23;;;;;;;0.20;0.20;;;;;;;15.29;67.15;98534.47;5055828;28;20033;-79
2022/04/01 09:45:52;;;;;;;0.20;0.20;;;;;;;15.18;65.11;98529.91;5070930;28;20025;-79
2022/04/01 09:48:23;;;;;;;0.20;0.20;;;;;;;15.15;65.29;98536.34;5035345;28;20064;-79
2022/04/01 09:50:59;;;;;;;0.20;0.20;;;;;;;14.86;67.87;98538.16;5048236;28;20025;-78
2022/04/01 09:53:28;;;;;;;0.20;0.20;;;;;;;15.02;67.99;98541.06;5050098;28;20037;-79
2022/04/01 09:56:00;;;;;;;0.20;0.20;;;;;;;15.11;68.68;98549.66;5049355;28;20053;-80
2022/04/01 09:58:26;;;;;;;0.20;0.20;;;;;;;15.15;68.06;98557.97;5049667;28;20036;-79
2022/04/01 10:00:52;;;;;;;0.20;0.20;;;;;;;15.11;67.52;98558.06;5066251;28;20029;-79
2022/04/01 10:03:21;;;;;;;0.20;0.20;;;;;;;14.94;66.18;98567.63;5054501;28;20063;-79
2022/04/01 10:05:53;;;;;;;0.20;0.20;;;;;;;14.78;65.19;98570.34;5057571;28;20017;-79
2022/04/01 10:08:28;;;;;;;0.20;0.20;;;;;;;14.68;65.16;98566.53;5054367;28;20029;-79
2022/04/01 10:10:55;;;;;;;0.20;0.20;;;;;;;14.56;63.98;98570.75;5053363;28;20025;-79
2022/04/01 10:13:31;;;;;;;0.20;0.20;;;;;;;14.37;63.91;98577.06;5035779;28;20043;-79
2022/04/01 10:16:01;;;;;;;0.20;0.20;;;;;;;14.30;64.75;98582.81;5051966;28;20067;-80
2022/04/01 10:18:31;;;;;;;0.20;0.20;;;;;;;14.04;65.47;98585.25;5051488;28;20096;-80
2022/04/01 10:21:01;;;;;;;0.20;0.20;;;;;;;14.11;66.59;98599.13;5052520;28;20089;-80
2022/04/01 10:23:36;;;;;;;0.20;0.20;;;;;;;14.00;68.60;98604.06;5050191;28;20112;-75
2022/04/01 10:26:07;;;;;;;0.20;0.20;;;;;;;13.88;69.65;98607.47;5049258;28;20071;-79
2022/04/01 10:59:37;;;;;;;0.20;0.20;;;;;;;13.15;70.41;98619.25;5664522;23;20080;-82
2022/04/01 11:02:09;;;;;;;0.25;0.25;;;;;;;13.28;69.74;98626.69;5016682;28;20049;-81
2022/04/01 11:04:43;;;;;;;0.20;0.20;;;;;;;13.25;71.51;98635.09;5031414;28;20025;-83
2022/04/01 11:12:29;;;;;;;0.20;0.20;;;;;;;12.31;80.43;98640.06;5480048;23;20047;-84
2022/04/01 11:18:02;;;;;;;0.20;0.20;;;;;;;11.73;81.30;98591.53;5297958;23;20087;-83
2022/04/01 11:20:32;;;;;;;0.20;0.20;;;;;;;11.73;83.46;98608.25;5036818;28;20022;-81
2022/04/01 11:23:01;;;;;;;0.20;0.20;;;;;;;11.32;84.24;98571.91;5040826;28;20037;-82
2022/04/01 11:25:32;;;;;;;0.20;0.20;;;;;;;11.81;83.31;98640.41;5041161;28;20037;-84
2022/04/01 11:28:14;;;;;;;0.30;0.30;;;;;;;11.85;83.79;98649.59;5040575;28;20022;-82
2022/04/01 11:30:47;;;;;;;0.25;0.25;;;;;;;11.97;82.26;98651.88;5040696;28;20020;-82
2022/04/01 11:33:18;;;;;;;0.20;0.20;;;;;;;12.01;82.14;98647.06;5040558;28;20069;-82
2022/04/01 11:35:50;;;;;;;0.20;0.20;;;;;;;12.09;80.95;98641.44;5040415;28;20030;-82
2022/04/01 11:48:46;;;;;;;0.20;0.20;;;;;;;11.82;78.76;98611.38;5259034;23;20046;-83
2022/04/01 11:51:19;;;;;;;0.20;0.20;;;;;;;11.83;78.78;98617.75;5005511;28;20033;-81
2022/04/01 11:58:59;;;;;;;0.20;0.20;;;;;;;11.77;81.15;98648.00;5515621;23;20042;-82
2022/04/01 12:01:29;;;;;;;0.20;0.20;;;;;;;11.79;78.64;98631.69;5003169;28;20049;-81
2022/04/01 12:04:12;;;;;;;0.20;0.20;;;;;;;12.28;68.60;98644.47;5003642;28;20053;-82
2022/04/01 12:20:14;;;;;;;0.20;0.20;;;;;;;13.64;62.00;98603.84;5314309;23;20042;-81
2022/04/01 12:22:40;;;;;;;0.20;0.20;;;;;;;14.36;60.47;98662.22;5002347;28;20045;-81
2022/04/01 12:25:09;;;;;;;0.20;0.20;;;;;;;14.33;60.12;98615.53;5002453;28;20034;-80
2022/04/01 12:27:56;;;;;;;0.20;0.20;;;;;;;14.77;60.03;98677.97;5003336;28;20019;-80
2022/04/01 12:30:33;;;;;;;0.20;0.20;;;;;;;15.21;59.97;98685.13;5002164;28;20050;-80
2022/04/01 12:33:17;;;;;;;0.20;0.20;;;;;;;15.41;57.73;98687.94;5002371;28;20041;-80
2022/04/01 12:35:59;;;;;;;0.20;0.20;;;;;;;15.60;57.38;98678.69;5002060;28;20034;-80
2022/04/01 12:38:28;;;;;;;0.20;0.20;;;;;;;16.01;58.51;98696.28;5017698;28;20469;-81
2022/04/01 12:40:59;;;;;;;0.20;0.20;;;;;;;15.83;57.23;98679.88;5001972;28;20033;-80
2022/04/01 12:43:44;;;;;;;0.20;0.20;;;;;;;16.10;57.59;98672.00;4993292;28;20072;-80
2022/04/01 12:46:25;;;;;;;0.20;0.20;;;;;;;16.27;57.00;98674.84;4994394;28;20481;-82
2022/04/01 12:48:57;;;;;;;0.20;0.20;;;;;;;16.30;54.34;98669.16;4997212;28;20034;-81
2022/04/01 12:51:26;;;;;;;0.20;0.20;;;;;;;16.41;55.71;98674.50;4999271;28;20026;-80
2022/04/01 12:54:02;;;;;;;0.20;0.20;;;;;;;15.60;55.62;98659.06;5016395;28;20027;-81
2022/04/01 12:56:39;;;;;;;0.20;0.20;;;;;;;15.61;56.91;98673.91;4999838;28;20039;-81
2022/04/01 12:59:14;;;;;;;0.20;0.20;;;;;;;15.84;56.47;98664.63;4998178;28;20053;-80